Time;durP1;ratioP1;P1;durP2;ratioP2;P2;SDS_P1;SDS_P2;PMS_P1;PMS_P2;Temp;Humidity;BMP_temperature;BMP_pressure;BME280_temperature;BME280_humidity;BME280_pressure;Samples;Min_cycle;Max_cycle;Signal;HPM_P1;HPM_P2
2023/01/29 00:01:29;;;;;;;32.95;28.02;;;;;;;1.52;100.00;102667.03;10094459;28;20433;-69
2023/01/29 00:06:26;;;;;;;32.60;28.50;;;;;;;1.61;100.00;102665.75;10092721;28;20059;-69
2023/01/29 00:11:24;;;;;;;46.28;32.75;;;;;;;1.49;100.00;102654.78;10096755;28;20054;-69
2023/01/29 00:16:20;;;;;;;34.83;27.23;;;;;;;1.52;100.00;102651.66;10086949;28;20067;-70
2023/01/29 00:21:19;;;;;;;32.55;26.88;;;;;;;1.51;100.00;102643.78;10104121;28;20073;-69
2023/01/29 00:26:16;;;;;;;31.55;25.92;;;;;;;1.57;100.00;102632.16;10086242;28;20047;-69
2023/01/29 00:31:15;;;;;;;33.05;27.58;;;;;;;1.56;100.00;102617.88;10089363;28;20043;-69
2023/01/29 00:36:14;;;;;;;34.05;26.65;;;;;;;1.56;100.00;102603.56;10088930;28;20047;-69
2023/01/29 00:46:28;;;;;;;31.42;25.17;;;;;;;1.62;100.00;102608.91;10094989;28;20070;-69
2023/01/29 00:51:25;;;;;;;37.50;28.02;;;;;;;1.66;100.00;102617.41;10092636;28;20129;-69
2023/01/29 00:56:21;;;;;;;32.20;25.52;;;;;;;1.62;100.00;102610.78;10094985;28;20049;-69
2023/01/29 01:03:04;;;;;;;34.60;25.52;;;;;;;1.64;100.00;102624.88;10080259;28;20784;-69
2023/01/29 01:06:39;;;;;;;31.15;23.35;;;;;;;1.67;100.00;102621.75;10088527;28;20055;-69
2023/01/29 01:11:36;;;;;;;28.30;23.23;;;;;;;1.67;100.00;102627.16;10098669;28;20047;-69
2023/01/29 01:16:33;;;;;;;31.70;24.15;;;;;;;1.68;100.00;102629.66;10096723;28;20394;-69
2023/01/29 01:21:29;;;;;;;32.53;24.65;;;;;;;1.74;100.00;102627.13;10082974;28;20047;-69
2023/01/29 01:26:26;;;;;;;31.60;25.75;;;;;;;1.77;100.00;102622.16;10086864;28;20584;-69
2023/01/29 01:31:22;;;;;;;30.58;22.48;;;;;;;1.77;100.00;102630.25;10096261;28;20078;-68
2023/01/29 01:36:19;;;;;;;30.58;23.65;;;;;;;1.82;100.00;102635.84;10093877;28;20066;-68
2023/01/29 01:41:19;;;;;;;30.75;23.42;;;;;;;1.82;100.00;102633.13;10097527;28;20070;-69
2023/01/29 01:46:15;;;;;;;27.20;21.83;;;;;;;1.79;100.00;102630.88;10103373;28;20382;-69
2023/01/29 01:51:13;;;;;;;30.88;23.58;;;;;;;1.77;100.00;102619.47;10085634;28;20070;-69
2023/01/29 01:56:15;;;;;;;32.42;22.42;;;;;;;1.78;100.00;102623.81;10083040;28;20063;-69
2023/01/29 02:01:12;;;;;;;32.23;23.87;;;;;;;1.84;100.00;102632.94;10089930;28;20043;-69
2023/01/29 02:11:25;;;;;;;24.90;21.52;;;;;;;1.85;100.00;102613.81;10085465;28;20126;-69
2023/01/29 02:16:22;;;;;;;31.23;22.60;;;;;;;1.89;100.00;102615.06;10083687;28;20074;-69
2023/01/29 02:21:39;;;;;;;25.90;22.60;;;;;;;1.86;100.00;102598.50;10085373;28;20071;-69
2023/01/29 02:26:47;;;;;;;28.48;22.95;;;;;;;1.82;100.00;102608.84;10088365;28;20075;-69
2023/01/29 02:31:54;;;;;;;27.67;22.70;;;;;;;1.86;100.00;102599.31;10078596;28;20077;-69
2023/01/29 02:37:03;;;;;;;24.00;21.30;;;;;;;1.87;100.00;102590.16;10096012;28;20044;-69
2023/01/29 02:42:12;;;;;;;35.33;24.90;;;;;;;1.84;100.00;102601.38;10085352;28;20051;-69
2023/01/29 02:47:17;;;;;;;27.27;24.02;;;;;;;1.87;100.00;102587.47;10103653;28;20138;-69
2023/01/29 02:52:16;;;;;;;28.80;25.35;;;;;;;1.95;100.00;102580.16;10083566;28;20079;-69
2023/01/29 02:57:29;;;;;;;29.13;24.17;;;;;;;1.96;100.00;102571.06;10101281;28;20505;-69
2023/01/29 03:02:41;;;;;;;29.70;26.50;;;;;;;1.92;100.00;102559.03;10097779;28;20141;-69
2023/01/29 03:07:44;;;;;;;29.45;24.30;;;;;;;1.96;100.00;102542.19;10109513;28;20569;-69
2023/01/29 03:12:43;;;;;;;28.90;24.92;;;;;;;1.92;100.00;102548.22;10107332;28;20093;-70
2023/01/29 03:17:50;;;;;;;31.67;27.20;;;;;;;1.95;100.00;102534.31;10103890;28;20402;-69
2023/01/29 03:22:54;;;;;;;30.60;26.20;;;;;;;1.93;100.00;102539.09;10086602;28;20085;-69
2023/01/29 03:33:16;;;;;;;28.73;25.45;;;;;;;1.98;100.00;102526.63;10094304;28;20035;-69
2023/01/29 03:38:12;;;;;;;27.40;24.60;;;;;;;2.00;100.00;102513.75;10096628;28;20039;-69
2023/01/29 03:43:12;;;;;;;28.55;25.50;;;;;;;2.03;100.00;102520.56;10109023;28;20122;-69
2023/01/29 03:48:27;;;;;;;28.20;25.20;;;;;;;2.09;100.00;102511.63;10104057;28;20465;-69
2023/01/29 03:53:50;;;;;;;28.42;25.55;;;;;;;2.09;100.00;102522.44;10094273;28;20082;-68
2023/01/29 03:58:58;;;;;;;26.37;23.83;;;;;;;2.06;100.00;102506.66;10105515;28;20145;-68
2023/01/29 04:04:02;;;;;;;29.63;26.48;;;;;;;2.08;100.00;102504.56;10099700;28;20497;-68
2023/01/29 04:09:19;;;;;;;27.58;24.75;;;;;;;2.04;100.00;102492.53;10105618;28;20101;-70
2023/01/29 04:14:16;;;;;;;27.52;24.60;;;;;;;2.06;100.00;102487.75;10096589;28;20043;-68
2023/01/29 04:19:13;;;;;;;27.23;24.20;;;;;;;1.99;100.00;102495.06;10098484;28;20062;-70
2023/01/29 04:24:11;;;;;;;25.08;22.67;;;;;;;2.03;100.00;102493.59;10092628;28;20130;-68
2023/01/29 04:29:21;;;;;;;30.27;26.00;;;;;;;1.95;100.00;102494.69;10098325;28;20057;-70
2023/01/29 04:34:24;;;;;;;28.98;25.95;;;;;;;1.92;100.00;102499.69;10102582;28;20494;-71
2023/01/29 04:39:33;;;;;;;30.40;27.00;;;;;;;1.93;100.00;102490.53;10094079;28;20047;-71
2023/01/29 04:45:02;;;;;;;34.13;26.52;;;;;;;1.92;100.00;102507.78;10095753;28;20143;-68
2023/01/29 04:50:22;;;;;;;28.73;25.73;;;;;;;1.91;100.00;102511.53;10092316;28;20432;-67
2023/01/29 04:55:37;;;;;;;29.27;26.40;;;;;;;1.86;100.00;102510.28;10091870;28;20078;-68
2023/01/29 05:00:40;;;;;;;30.73;27.50;;;;;;;1.83;100.00;102513.44;10085751;28;20523;-70
2023/01/29 05:05:41;;;;;;;32.00;28.60;;;;;;;1.80;100.00;102507.63;10118369;28;20415;-68
2023/01/29 05:10:38;;;;;;;32.95;29.20;;;;;;;1.80;100.00;102497.66;10088009;28;20133;-68
2023/01/29 05:15:42;;;;;;;31.23;28.25;;;;;;;1.81;100.00;102493.94;10102741;28;20074;-68
2023/01/29 05:20:41;;;;;;;32.05;28.95;;;;;;;1.73;100.00;102483.38;10094140;28;20466;-68
2023/01/29 05:25:37;;;;;;;36.05;31.58;;;;;;;1.73;100.00;102475.28;10079136;28;20074;-68
2023/01/29 05:30:36;;;;;;;36.20;30.90;;;;;;;1.68;100.00;102499.38;10085590;28;20043;-68
2023/01/29 05:35:33;;;;;;;31.63;28.48;;;;;;;1.67;100.00;102486.94;10090311;28;20498;-70
2023/01/29 05:40:30;;;;;;;34.33;30.70;;;;;;;1.70;100.00;102475.72;10083589;28;20055;-70
2023/01/29 05:45:26;;;;;;;32.83;29.55;;;;;;;1.67;100.00;102470.75;10098031;28;20147;-70
2023/01/29 05:50:23;;;;;;;33.90;30.30;;;;;;;1.69;100.00;102479.44;10091181;28;20054;-70
2023/01/29 05:55:20;;;;;;;36.20;32.20;;;;;;;1.65;100.00;102480.94;10100911;28;20567;-69
2023/01/29 06:00:17;;;;;;;34.70;31.08;;;;;;;1.68;100.00;102485.91;10089100;28;20064;-68
2023/01/29 06:05:14;;;;;;;35.80;32.00;;;;;;;1.62;100.00;102489.44;10093500;28;20047;-68
2023/01/29 06:10:15;;;;;;;40.95;36.63;;;;;;;1.47;100.00;102466.28;10080442;28;20047;-69
2023/01/29 06:15:14;;;;;;;34.85;31.23;;;;;;;1.61;100.00;102471.63;10085804;28;20513;-69
2023/01/29 06:20:11;;;;;;;35.53;31.77;;;;;;;1.54;100.00;102443.88;10088610;28;20066;-68
2023/01/29 06:25:08;;;;;;;33.65;30.33;;;;;;;1.51;100.00;102449.66;10080353;28;21516;-69
2023/01/29 06:30:05;;;;;;;33.22;30.08;;;;;;;1.54;100.00;102442.00;10087024;28;20552;-69
2023/01/29 06:35:01;;;;;;;33.20;29.75;;;;;;;1.58;100.00;102428.91;10101821;28;20074;-68
2023/01/29 06:39:58;;;;;;;34.38;30.92;;;;;;;1.54;100.00;102411.53;10101126;28;20070;-69
2023/01/29 06:44:55;;;;;;;35.10;29.42;;;;;;;1.49;100.00;102403.25;10101270;28;20122;-69
2023/01/29 06:49:52;;;;;;;32.08;28.88;;;;;;;1.55;100.00;102418.56;10095386;28;20038;-69
2023/01/29 06:54:48;;;;;;;34.55;31.25;;;;;;;1.61;100.00;102406.91;10093337;28;20049;-69
2023/01/29 06:59:44;;;;;;;33.15;30.00;;;;;;;1.67;100.00;102400.63;10099276;28;20505;-69
2023/01/29 07:04:41;;;;;;;33.15;30.10;;;;;;;1.73;100.00;102398.97;10108008;28;20142;-69
2023/01/29 07:09:41;;;;;;;32.38;29.38;;;;;;;1.78;100.00;102391.03;10111221;28;20054;-68
2023/01/29 07:14:38;;;;;;;35.45;31.88;;;;;;;1.85;100.00;102400.72;10094505;28;20089;-69
2023/01/29 07:19:34;;;;;;;33.78;30.35;;;;;;;1.85;100.00;102408.81;10118614;28;20137;-68
2023/01/29 07:24:31;;;;;;;33.83;30.13;;;;;;;1.88;100.00;102408.41;10095195;28;20038;-69
2023/01/29 07:29:28;;;;;;;28.40;25.52;;;;;;;1.83;100.00;102404.69;10117593;28;20059;-69
2023/01/29 07:34:24;;;;;;;31.77;27.77;;;;;;;1.75;100.00;102381.50;10096684;28;20051;-69
2023/01/29 07:39:20;;;;;;;32.33;27.83;;;;;;;1.68;100.00;102369.94;10091494;28;20109;-70
2023/01/29 07:44:17;;;;;;;31.58;27.90;;;;;;;1.60;100.00;102356.72;10105696;28;20055;-69
2023/01/29 07:49:14;;;;;;;32.80;27.48;;;;;;;1.52;100.00;102348.91;10113075;28;20043;-69
2023/01/29 07:54:10;;;;;;;36.28;28.70;;;;;;;1.50;100.00;102367.16;10102891;28;20494;-69
2023/01/29 07:59:07;;;;;;;34.67;31.00;;;;;;;1.43;100.00;102362.63;10106650;28;20047;-69
2023/01/29 08:04:03;;;;;;;33.60;30.02;;;;;;;1.39;100.00;102369.50;10109838;28;20077;-70
2023/01/29 08:09:00;;;;;;;37.90;31.58;;;;;;;1.39;100.00;102360.56;10084192;28;20052;-69
2023/01/29 08:13:56;;;;;;;36.95;30.33;;;;;;;1.44;100.00;102358.91;10093185;28;20553;-69
2023/01/29 08:18:54;;;;;;;36.15;30.15;;;;;;;1.55;100.00;102353.84;10109402;28;20081;-68
2023/01/29 08:23:50;;;;;;;35.60;29.50;;;;;;;1.59;100.00;102357.78;10098884;28;20043;-69
2023/01/29 08:28:47;;;;;;;42.22;31.23;;;;;;;1.64;100.00;102355.25;10102270;28;20079;-68
2023/01/29 08:33:43;;;;;;;33.88;29.08;;;;;;;1.68;100.00;102353.78;10086593;28;20047;-69
2023/01/29 08:38:40;;;;;;;42.50;32.00;;;;;;;1.69;100.00;102350.00;10106748;28;20050;-68
2023/01/29 08:43:37;;;;;;;39.58;30.77;;;;;;;1.73;100.00;102348.53;10096298;28;20133;-68
2023/01/29 08:48:35;;;;;;;41.35;33.28;;;;;;;1.79;100.00;102355.78;10094492;28;20051;-68
2023/01/29 08:53:32;;;;;;;42.53;33.47;;;;;;;1.77;100.00;102355.16;10101307;28;20046;-70
2023/01/29 08:58:28;;;;;;;44.13;35.22;;;;;;;1.85;100.00;102349.47;10101471;28;20061;-69
2023/01/29 09:03:25;;;;;;;52.85;35.13;;;;;;;1.90;100.00;102348.81;10094177;28;20093;-69
2023/01/29 09:08:21;;;;;;;51.60;33.38;;;;;;;1.89;100.00;102356.09;10087503;28;20408;-68
2023/01/29 09:13:18;;;;;;;56.65;39.15;;;;;;;1.88;100.00;102354.47;10078516;28;20082;-68
2023/01/29 09:18:14;;;;;;;54.28;37.80;;;;;;;1.98;100.00;102353.13;10091736;28;20416;-68
2023/01/29 09:23:10;;;;;;;53.95;39.15;;;;;;;2.08;100.00;102348.06;10090808;28;20477;-68
2023/01/29 09:28:07;;;;;;;62.20;41.95;;;;;;;2.06;100.00;102350.97;10078162;28;20083;-69
2023/01/29 09:33:04;;;;;;;55.13;40.08;;;;;;;2.18;100.00;102336.75;10095860;28;20051;-68
2023/01/29 09:38:01;;;;;;;56.60;40.42;;;;;;;2.16;100.00;102336.16;10088361;28;20111;-69
2023/01/29 09:43:03;;;;;;;51.67;39.03;;;;;;;2.19;100.00;102336.53;10089047;28;20039;-69
2023/01/29 09:48:02;;;;;;;57.42;41.63;;;;;;;2.19;100.00;102336.53;10085646;28;20039;-69
2023/01/29 09:53:14;;;;;;;50.60;39.28;;;;;;;2.19;100.00;102323.06;10088064;28;20050;-69
2023/01/29 09:58:21;;;;;;;59.65;42.38;;;;;;;2.15;100.00;102307.53;10104480;28;20469;-69
2023/01/29 10:03:36;;;;;;;57.20;40.88;;;;;;;2.21;100.00;102285.88;10083381;28;20043;-69
2023/01/29 10:09:03;;;;;;;54.47;40.45;;;;;;;2.20;100.00;102281.50;10091267;28;20046;-69
2023/01/29 10:14:54;;;;;;;60.92;42.70;;;;;;;2.17;100.00;102276.56;10088752;28;20138;-69
2023/01/29 10:20:05;;;;;;;64.32;42.53;;;;;;;2.26;100.00;102263.63;10062491;28;20519;-69
2023/01/29 10:25:12;;;;;;;63.83;43.75;;;;;;;2.24;100.00;102266.53;10082401;28;20081;-68
2023/01/29 10:30:34;;;;;;;68.13;45.53;;;;;;;2.28;100.00;102273.13;10095495;28;20061;-69
2023/01/29 10:35:43;;;;;;;64.70;43.55;;;;;;;2.27;100.00;102255.28;10105037;28;20054;-69
2023/01/29 10:41:07;;;;;;;66.57;47.28;;;;;;;2.29;100.00;102247.78;10097399;28;20639;-69
2023/01/29 10:46:28;;;;;;;63.55;44.95;;;;;;;2.33;100.00;102241.94;10094451;28;20053;-71
2023/01/29 10:51:47;;;;;;;59.90;44.65;;;;;;;2.28;100.00;102239.94;10093932;28;20071;-69
2023/01/29 10:56:58;;;;;;;69.20;47.47;;;;;;;2.25;100.00;102232.25;10101517;28;20131;-69
2023/01/29 11:01:58;;;;;;;70.35;47.60;;;;;;;2.33;100.00;102226.56;10098066;28;20042;-69
2023/01/29 11:06:55;;;;;;;66.28;47.33;;;;;;;2.36;100.00;102219.91;10101820;28;20048;-69
2023/01/29 11:11:58;;;;;;;59.03;43.85;;;;;;;2.45;100.00;102207.75;10089002;28;20050;-69
2023/01/29 11:16:54;;;;;;;56.95;45.45;;;;;;;2.49;100.00;102208.94;10106155;28;20138;-68
2023/01/29 11:21:58;;;;;;;59.38;45.20;;;;;;;2.54;100.00;102211.78;10089730;28;20504;-70
2023/01/29 11:26:58;;;;;;;51.78;41.70;;;;;;;2.67;100.00;102194.56;10077768;28;20058;-68
2023/01/29 11:31:56;;;;;;;50.35;40.58;;;;;;;2.65;100.00;102194.81;10081378;28;20090;-70
2023/01/29 11:37:02;;;;;;;50.97;39.88;;;;;;;2.67;100.00;102173.81;10087704;28;20085;-68
2023/01/29 11:42:02;;;;;;;53.22;43.92;;;;;;;2.70;100.00;102184.16;10081726;28;20043;-68
2023/01/29 11:47:13;;;;;;;50.00;37.72;;;;;;;2.70;100.00;102162.53;10086985;28;20106;-68
2023/01/29 11:52:10;;;;;;;48.63;37.38;;;;;;;2.77;100.00;102145.41;10093808;28;20051;-68
2023/01/29 11:57:31;;;;;;;47.28;38.85;;;;;;;2.69;100.00;102138.44;10091780;28;20055;-70
2023/01/29 12:02:35;;;;;;;46.78;36.15;;;;;;;2.79;100.00;102127.09;10091783;28;20420;-70
2023/01/29 12:07:33;;;;;;;49.42;39.05;;;;;;;2.81;100.00;102119.56;10105299;28;20157;-70
2023/01/29 12:12:40;;;;;;;44.28;35.67;;;;;;;2.80;100.00;102109.84;10099270;28;20043;-68
2023/01/29 12:17:38;;;;;;;43.00;32.92;;;;;;;2.78;100.00;102098.44;10096832;28;20057;-70
2023/01/29 12:22:41;;;;;;;47.55;37.67;;;;;;;2.74;100.00;102103.50;10101589;28;20141;-70
2023/01/29 12:27:46;;;;;;;47.17;37.80;;;;;;;2.66;100.00;102090.31;10107159;28;20046;-70
2023/01/29 12:33:00;;;;;;;44.85;38.05;;;;;;;2.59;100.00;102079.59;10108756;28;20130;-70
2023/01/29 12:38:21;;;;;;;44.53;38.47;;;;;;;2.66;100.00;102080.31;10107582;28;20069;-68
2023/01/29 12:43:26;;;;;;;49.90;41.53;;;;;;;2.56;100.00;102069.28;10104358;28;20137;-68
2023/01/29 12:48:31;;;;;;;50.72;41.58;;;;;;;2.48;100.00;102059.63;10105935;28;20049;-68
2023/01/29 12:53:42;;;;;;;49.35;38.70;;;;;;;2.50;100.00;102043.19;10104134;28;20082;-70
2023/01/29 12:58:45;;;;;;;47.17;37.13;;;;;;;2.53;100.00;102037.34;10105881;28;20672;-70
2023/01/29 13:03:58;;;;;;;52.45;37.88;;;;;;;2.59;100.00;102025.59;10103141;28;20089;-70
2023/01/29 13:08:58;;;;;;;43.23;35.30;;;;;;;2.62;100.00;102006.25;10098961;28;20051;-69
2023/01/29 13:14:03;;;;;;;48.63;39.28;;;;;;;2.66;100.00;102010.09;10110794;28;20473;-70
2023/01/29 13:19:13;;;;;;;42.95;33.58;;;;;;;2.73;100.00;102000.00;10106039;28;20101;-70
2023/01/29 13:24:14;;;;;;;39.22;34.35;;;;;;;2.71;100.00;101991.31;10104608;28;20429;-70
2023/01/29 13:29:23;;;;;;;38.30;32.10;;;;;;;2.72;100.00;101987.56;10102746;28;20055;-70
2023/01/29 13:34:30;;;;;;;42.38;36.35;;;;;;;2.79;100.00;101981.25;10107882;28;20110;-70
2023/01/29 13:39:33;;;;;;;36.40;32.03;;;;;;;2.75;100.00;101986.28;10102980;28;20082;-70
2023/01/29 13:44:36;;;;;;;39.17;32.13;;;;;;;2.74;100.00;101985.47;10095918;28;20043;-70
2023/01/29 13:49:35;;;;;;;38.28;29.85;;;;;;;2.79;100.00;101973.97;10101737;28;20109;-69
2023/01/29 13:54:32;;;;;;;42.95;34.78;;;;;;;2.84;100.00;101968.66;10100811;28;20043;-69
2023/01/29 13:59:54;;;;;;;37.08;32.13;;;;;;;2.82;100.00;101949.16;10106768;28;20157;-70
2023/01/29 14:04:50;;;;;;;42.45;34.97;;;;;;;2.71;100.00;101953.50;10096536;28;20134;-69
2023/01/29 14:09:47;;;;;;;43.53;35.72;;;;;;;2.63;100.00;101945.78;10107754;28;20055;-70
2023/01/29 14:14:46;;;;;;;58.65;41.92;;;;;;;2.55;100.00;101943.41;10094683;28;20071;-70
2023/01/29 14:19:49;;;;;;;49.33;39.67;;;;;;;2.54;100.00;101925.56;10089210;28;20213;-70
2023/01/29 14:24:46;;;;;;;46.13;37.92;;;;;;;2.56;100.00;101928.06;10086119;28;20134;-69
2023/01/29 14:29:43;;;;;;;44.80;36.88;;;;;;;2.54;100.00;101914.78;10093589;28;20057;-69
2023/01/29 14:34:50;;;;;;;46.55;37.33;;;;;;;2.55;100.00;101902.91;10098997;28;20038;-69
2023/01/29 14:39:54;;;;;;;47.45;38.90;;;;;;;2.63;100.00;101904.44;10094711;28;20065;-70
2023/01/29 14:44:53;;;;;;;46.50;35.25;;;;;;;2.62;100.00;101898.25;10098362;28;20476;-70
2023/01/29 14:49:52;;;;;;;40.80;34.55;;;;;;;2.69;100.00;101887.28;10095564;28;20078;-70
2023/01/29 14:54:51;;;;;;;39.95;32.80;;;;;;;2.69;100.00;101890.00;10089782;28;20051;-70
2023/01/29 14:59:54;;;;;;;42.17;35.80;;;;;;;2.65;100.00;101881.56;10092614;28;20051;-70
2023/01/29 15:04:57;;;;;;;46.53;36.40;;;;;;;2.54;100.00;101879.69;10093397;28;20047;-70
2023/01/29 15:10:46;;;;;;;43.47;35.75;;;;;;;2.55;100.00;101869.69;10094846;28;20137;-70
2023/01/29 15:15:51;;;;;;;48.20;40.70;;;;;;;2.48;100.00;101867.09;10086686;28;20577;-70
2023/01/29 15:20:47;;;;;;;47.47;40.20;;;;;;;2.48;100.00;101880.59;10098698;28;20059;-69
2023/01/29 15:25:49;;;;;;;46.95;38.05;;;;;;;2.43;100.00;101865.13;10107557;28;20047;-70
2023/01/29 15:30:52;;;;;;;46.03;38.33;;;;;;;2.49;100.00;101863.38;10109717;28;20047;-69
2023/01/29 15:35:56;;;;;;;42.53;36.58;;;;;;;2.41;100.00;101831.31;10111876;28;20042;-69
2023/01/29 15:41:14;;;;;;;48.40;39.15;;;;;;;2.42;100.00;101838.38;10115363;28;20057;-69
2023/01/29 15:46:23;;;;;;;47.30;38.65;;;;;;;2.44;100.00;101823.59;10098506;28;20050;-69
2023/01/29 15:51:24;;;;;;;51.67;40.47;;;;;;;2.39;100.00;101814.53;10095008;28;20125;-69
2023/01/29 15:56:26;;;;;;;47.00;39.35;;;;;;;2.43;100.00;101804.91;10097725;28;20053;-69
2023/01/29 16:01:27;;;;;;;47.92;40.30;;;;;;;2.42;100.00;101792.50;10109087;28;20089;-69
2023/01/29 16:06:24;;;;;;;47.35;38.92;;;;;;;2.43;100.00;101794.13;10101409;28;20523;-69
2023/01/29 16:11:20;;;;;;;47.25;39.75;;;;;;;2.43;100.00;101799.50;10099870;28;20054;-69
2023/01/29 16:16:23;;;;;;;46.40;37.97;;;;;;;2.40;100.00;101789.19;10094414;28;20039;-69
2023/01/29 16:21:35;;;;;;;45.05;40.00;;;;;;;2.39;100.00;101777.59;10099113;28;20042;-67
2023/01/29 16:26:35;;;;;;;43.47;36.20;;;;;;;2.38;100.00;101778.63;10099499;28;20071;-68
2023/01/29 16:31:32;;;;;;;51.97;37.42;;;;;;;2.38;100.00;101780.50;10105430;28;20058;-68
2023/01/29 16:36:29;;;;;;;47.13;37.00;;;;;;;2.38;100.00;101775.94;10098280;28;20059;-68
2023/01/29 16:41:32;;;;;;;49.00;36.35;;;;;;;2.38;100.00;101758.91;10095479;28;20047;-67
2023/01/29 16:46:36;;;;;;;41.80;33.63;;;;;;;2.39;100.00;101771.34;10109075;28;20081;-67
2023/01/29 16:51:38;;;;;;;43.97;34.58;;;;;;;2.40;100.00;101762.22;10097343;28;20043;-68
2023/01/29 16:56:36;;;;;;;40.47;34.00;;;;;;;2.27;100.00;101736.28;10080808;28;20094;-68
2023/01/29 17:01:35;;;;;;;45.42;36.05;;;;;;;2.23;100.00;101733.25;10107231;28;20051;-68
2023/01/29 17:06:32;;;;;;;44.72;36.67;;;;;;;2.24;100.00;101731.38;10103690;28;20051;-67
2023/01/29 17:11:34;;;;;;;41.63;36.15;;;;;;;2.24;100.00;101716.00;10102128;28;20061;-68
2023/01/29 17:16:34;;;;;;;42.97;36.03;;;;;;;2.22;100.00;101704.59;10107830;28;20050;-67
2023/01/29 17:21:30;;;;;;;42.35;35.08;;;;;;;2.24;100.00;101709.78;10097353;28;20078;-68
2023/01/29 17:26:30;;;;;;;42.88;34.30;;;;;;;2.25;100.00;101712.25;10098242;28;20043;-67
2023/01/29 17:31:26;;;;;;;41.75;35.97;;;;;;;2.17;100.00;101704.50;10107342;28;20050;-67
2023/01/29 17:36:23;;;;;;;36.28;30.38;;;;;;;2.14;100.00;101691.50;10105831;28;20153;-68
2023/01/29 17:41:28;;;;;;;40.40;35.08;;;;;;;2.14;100.00;101683.41;10096182;28;20734;-67
2023/01/29 17:46:26;;;;;;;39.72;35.50;;;;;;;2.13;100.00;101670.97;10097814;28;20054;-68
2023/01/29 17:51:23;;;;;;;42.72;38.08;;;;;;;2.06;100.00;101672.97;10103269;28;20047;-67
2023/01/29 17:56:26;;;;;;;38.78;34.70;;;;;;;2.04;100.00;101653.50;10097181;28;20042;-67
2023/01/29 18:01:23;;;;;;;41.17;36.00;;;;;;;1.97;100.00;101660.91;10100434;28;20066;-67
2023/01/29 18:06:27;;;;;;;45.97;39.28;;;;;;;1.93;100.00;101644.38;10098339;28;20808;-68
2023/01/29 18:11:24;;;;;;;43.60;36.25;;;;;;;1.95;100.00;101641.44;10102274;28;21762;-67
2023/01/29 18:16:21;;;;;;;41.53;34.67;;;;;;;1.92;100.00;101636.53;10101625;28;20398;-66
2023/01/29 18:21:18;;;;;;;39.63;35.20;;;;;;;1.96;100.00;101616.94;10097833;28;20078;-66
2023/01/29 18:26:15;;;;;;;41.00;36.08;;;;;;;1.98;100.00;101605.91;10100771;28;20040;-66
2023/01/29 18:31:12;;;;;;;44.53;37.55;;;;;;;1.95;100.00;101587.50;10088548;28;20114;-66
2023/01/29 18:36:10;;;;;;;44.05;39.33;;;;;;;1.94;100.00;101585.88;10092255;28;20046;-66
2023/01/29 18:41:11;;;;;;;39.30;35.17;;;;;;;1.93;100.00;101576.13;10076983;28;20121;-66
2023/01/29 18:46:08;;;;;;;43.95;37.75;;;;;;;1.91;100.00;101570.16;10095131;28;20516;-66
2023/01/29 18:51:04;;;;;;;44.10;38.25;;;;;;;1.86;100.00;101554.72;10092865;28;20051;-67
2023/01/29 18:56:04;;;;;;;42.20;37.50;;;;;;;1.89;100.00;101546.94;10097386;28;20227;-66
2023/01/29 19:01:05;;;;;;;43.97;38.08;;;;;;;1.89;100.00;101525.38;10107437;28;20073;-66
2023/01/29 19:06:03;;;;;;;45.72;36.20;;;;;;;1.89;100.00;101514.56;10107547;28;20130;-66
2023/01/29 19:11:02;;;;;;;53.78;42.33;;;;;;;1.95;100.00;101522.75;10100944;28;20047;-66
2023/01/29 19:15:59;;;;;;;48.67;38.13;;;;;;;1.97;100.00;101510.66;10105150;28;20389;-66
2023/01/29 19:20:56;;;;;;;52.47;39.38;;;;;;;1.95;100.00;101511.97;10103191;28;20126;-66
2023/01/29 19:25:56;;;;;;;55.17;41.45;;;;;;;1.92;100.00;101490.88;10087093;28;20082;-66
2023/01/29 19:30:56;;;;;;;52.30;38.88;;;;;;;1.91;100.00;101489.25;10086072;28;20047;-67
2023/01/29 19:36:00;;;;;;;57.90;42.25;;;;;;;1.92;100.00;101480.09;10102175;28;20050;-66
2023/01/29 19:40:58;;;;;;;66.07;44.72;;;;;;;1.94;100.00;101467.19;10094649;28;20564;-66
2023/01/29 19:45:57;;;;;;;62.00;44.67;;;;;;;1.98;100.00;101460.25;10108255;28;20059;-66
2023/01/29 19:51:03;;;;;;;60.50;46.03;;;;;;;1.97;100.00;101477.50;10094580;28;20086;-66
2023/01/29 19:56:08;;;;;;;66.78;47.92;;;;;;;1.97;100.00;101434.34;10109141;28;20077;-66
2023/01/29 20:01:11;;;;;;;66.38;46.33;;;;;;;1.98;100.00;101446.78;10114346;28;20051;-66
2023/01/29 20:06:08;;;;;;;65.30;48.42;;;;;;;1.95;100.00;101433.75;10092672;28;20051;-66
2023/01/29 20:11:04;;;;;;;66.57;47.25;;;;;;;1.95;100.00;101433.75;10082422;28;20055;-66
2023/01/29 20:16:02;;;;;;;69.38;48.40;;;;;;;1.95;100.00;101425.66;10091712;28;20047;-66
2023/01/29 20:21:15;;;;;;;70.22;47.55;;;;;;;1.94;100.00;101424.03;10090228;28;20057;-66
2023/01/29 20:26:14;;;;;;;73.18;46.55;;;;;;;1.89;100.00;101417.50;10083991;28;20051;-66
2023/01/29 20:31:11;;;;;;;72.45;46.60;;;;;;;1.92;100.00;101415.38;10082989;28;20114;-66
2023/01/29 20:36:09;;;;;;;82.70;52.40;;;;;;;1.91;100.00;101419.16;10098490;28;20678;-66
2023/01/29 20:41:07;;;;;;;73.50;47.22;;;;;;;1.96;100.00;101389.56;10095570;28;20154;-66
2023/01/29 20:46:04;;;;;;;69.05;47.35;;;;;;;1.98;100.00;101390.13;10093853;28;20532;-65
2023/01/29 20:51:11;;;;;;;77.47;48.78;;;;;;;2.00;100.00;101363.75;10101566;28;20061;-65
2023/01/29 20:56:08;;;;;;;71.55;49.28;;;;;;;1.99;100.00;101362.09;10097577;28;20046;-66
2023/01/29 21:01:11;;;;;;;66.45;44.72;;;;;;;2.01;100.00;101349.19;10094754;28;20049;-67
2023/01/29 21:06:09;;;;;;;65.40;42.95;;;;;;;2.04;100.00;101343.28;10103891;28;20469;-65
2023/01/29 21:11:07;;;;;;;72.28;47.88;;;;;;;2.06;100.00;101316.88;10099253;28;20054;-66
2023/01/29 21:16:05;;;;;;;74.25;50.20;;;;;;;2.07;100.00;101316.66;10099373;28;20051;-66
2023/01/29 21:21:01;;;;;;;74.13;47.25;;;;;;;2.12;100.00;101307.81;10100956;28;20038;-66
2023/01/29 21:26:02;;;;;;;70.72;43.35;;;;;;;2.18;100.00;101312.25;10096976;28;20062;-66
2023/01/29 21:31:04;;;;;;;70.88;46.28;;;;;;;2.24;100.00;101300.44;10100365;28;20508;-66
2023/01/29 21:36:01;;;;;;;67.50;44.80;;;;;;;2.30;100.00;101287.84;10098210;28;20065;-66
2023/01/29 21:41:05;;;;;;;61.67;42.33;;;;;;;2.31;100.00;101268.69;10099538;28;20047;-66
2023/01/29 21:46:04;;;;;;;61.63;42.22;;;;;;;2.33;100.00;101259.56;10101869;28;20501;-67
2023/01/29 21:51:01;;;;;;;68.00;45.05;;;;;;;2.37;100.00;101257.97;10095662;28;20413;-66
2023/01/29 21:56:03;;;;;;;65.95;44.20;;;;;;;2.42;100.00;101239.97;10097239;28;20043;-67
2023/01/29 22:00:59;;;;;;;67.30;41.67;;;;;;;2.48;100.00;101246.25;10100114;28;20057;-67
2023/01/29 22:06:16;;;;;;;68.32;42.17;;;;;;;2.51;100.00;101226.84;10088944;28;20046;-67
2023/01/29 22:11:12;;;;;;;68.95;45.05;;;;;;;2.57;100.00;101238.53;10112099;28;20046;-67
2023/01/29 22:16:09;;;;;;;70.88;47.45;;;;;;;2.53;100.00;101227.44;10093312;28;20521;-66
2023/01/29 22:21:05;;;;;;;69.43;48.75;;;;;;;2.42;100.00;101186.00;10101735;28;20049;-66
2023/01/29 22:26:03;;;;;;;82.57;52.75;;;;;;;2.34;100.00;101164.84;10103352;28;20513;-67
2023/01/29 22:31:01;;;;;;;71.95;47.25;;;;;;;2.31;100.00;101185.03;10102715;28;20073;-67
2023/01/29 22:35:58;;;;;;;79.97;49.33;;;;;;;2.34;100.00;101182.91;10099274;28;20510;-67
2023/01/29 22:40:56;;;;;;;71.82;45.78;;;;;;;2.35;100.00;101165.66;10101926;28;20047;-66
2023/01/29 22:45:52;;;;;;;76.65;44.95;;;;;;;2.32;100.00;101169.66;10101008;28;20047;-66
2023/01/29 22:51:08;;;;;;;69.60;46.67;;;;;;;2.27;100.00;101165.00;10107090;28;20054;-66